• Join FlightAware (Why Join?)
  • Login
  • US Flag 
09:12AM EST


 

Airport Tracker/Info


-or-


 

Live Flight TrackerFlight Track Log ✈ SVA1482 ✈ 07-Jul-2014 ✈ OEPA / AQI - OERK / RUH

Flight Track Log - Related Links

Times and Time Zones

All times are in EDT time to prevent confusion due to time zone crossing. See the SVA1482 flight status page for this flight to view local times or setup timezone preferences in your user account.

Time Position Orientation Groundspeed Altitude Reporting Facility
EDT Latitude Longitude Course Direction KTS MPH feet Rate Location/Type
02:30PM 27.9980 46.1839 171° South  Level Estimated
02:31PM 27.9137 46.1986 171° South  Level Estimated
02:32PM 27.8293 46.2132 171° South  Level Estimated
02:33PM 27.7450 46.2279 171° South  Level Estimated
02:34PM 27.6607 46.2424 171° South  Level Estimated
02:35PM 27.5764 46.2570 171° South  Level Estimated
02:36PM 27.4921 46.2715 171° South  Level Estimated
02:37PM 27.4077 46.2861 171° South  Level Estimated
02:38PM 27.3234 46.3006 171° South  Level Estimated
02:39PM 27.2391 46.3151 171° South  Level Estimated
02:40PM 27.1548 46.3295 171° South  Level Estimated
02:41PM 27.0704 46.3439 171° South  Level Estimated
02:42PM 26.9861 46.3584 171° South  Level Estimated
02:43PM 26.9018 46.3728 171° South  Level Estimated
02:44PM 26.8175 46.3871 171° South  Level Estimated
02:45PM 26.7331 46.4015 171° South  Level Estimated
02:46PM 26.6488 46.4158 171° South  Level Estimated
02:47PM 26.5645 46.4301 171° South  Level Estimated
02:48PM 26.4801 46.4444 171° South  Level Estimated
02:49PM 26.3958 46.4587 171° South  Level Estimated
02:50PM 26.3114 46.4729 171° South  Level Estimated
02:51PM 26.2271 46.4871 171° South  Level Estimated
02:52PM 26.1428 46.5013 171° South  Level Estimated
02:53PM 26.0584 46.5155 171° South  Level Estimated
02:54PM 25.9741 46.5297 171° South  Level Estimated
02:55PM 25.8897 46.5438 171° South  Level Estimated
02:56PM 25.8054 46.5579 171° South  Level Estimated
02:57PM 25.7210 46.5721 171° South  Level Estimated
02:58PM 25.6367 46.5861 171° South  Level Estimated
02:59PM 25.5523 46.6002 171° South  Level Estimated
03:00PM 25.4680 46.6142 171° South  Level Estimated
03:01PM 25.3836 46.6283 171° South  Level Estimated
03:02PM 25.2992 46.6423 171° South  Level Estimated
03:03PM 25.2149 46.6562 171° South  Level Estimated
03:04PM 25.1305 46.6702 171° South  Level Estimated
03:05PM 25.0462 46.6842 171° South  Level Estimated
03:06PM 24.9618 46.6981 171° South  Level Estimated
03:07PM 24.9576 46.6988 171° South  Level Estimated
03:08PM 24.9576 46.6988 North  Level Estimated
03:09PM 24.9576 46.6988 North  Level Estimated
03:10PM 24.9576 46.6988 North  Level Estimated
03:11PM 24.9576 46.6988 North  Level Estimated
03:12PM 24.9576 46.6988 North  Level Estimated
03:13PM 24.9576 46.6988 North  Level Estimated
03:14PM 24.9576 46.6988 North  Level Estimated